sensor_id;sensor_type;location;lat;lon;timestamp;temperature;humidity
37086;DHT22;23001;45.952;12.676;2023-03-23T00:01:48;11.50;99.90
37086;DHT22;23001;45.952;12.676;2023-03-23T00:04:22;11.60;99.90
37086;DHT22;23001;45.952;12.676;2023-03-23T00:06:52;11.50;99.90
37086;DHT22;23001;45.952;12.676;2023-03-23T00:09:17;11.50;99.90
37086;DHT22;23001;45.952;12.676;2023-03-23T00:11:49;11.50;99.90
37086;DHT22;23001;45.952;12.676;2023-03-23T00:14:16;11.40;99.90
37086;DHT22;23001;45.952;12.676;2023-03-23T00:16:45;11.30;99.90
37086;DHT22;23001;45.952;12.676;2023-03-23T00:19:14;11.30;99.90
37086;DHT22;23001;45.952;12.676;2023-03-23T00:21:40;11.30;99.90
37086;DHT22;23001;45.952;12.676;2023-03-23T00:24:17;11.30;99.90
37086;DHT22;23001;45.952;12.676;2023-03-23T00:26:44;11.30;99.90
37086;DHT22;23001;45.952;12.676;2023-03-23T00:29:14;11.30;99.90
37086;DHT22;23001;45.952;12.676;2023-03-23T00:31:41;11.40;99.90
37086;DHT22;23001;45.952;12.676;2023-03-23T00:34:13;11.30;99.90
37086;DHT22;23001;45.952;12.676;2023-03-23T00:36:43;11.20;99.90
37086;DHT22;23001;45.952;12.676;2023-03-23T00:39:10;11.20;99.90
37086;DHT22;23001;45.952;12.676;2023-03-23T00:41:36;11.30;99.90
37086;DHT22;23001;45.952;12.676;2023-03-23T00:44:02;11.30;99.90
37086;DHT22;23001;45.952;12.676;2023-03-23T00:46:28;11.30;99.90
37086;DHT22;23001;45.952;12.676;2023-03-23T00:48:54;11.20;99.90
37086;DHT22;23001;45.952;12.676;2023-03-23T00:51:20;11.20;99.90
37086;DHT22;23001;45.952;12.676;2023-03-23T00:53:56;11.30;99.90
37086;DHT22;23001;45.952;12.676;2023-03-23T00:56:27;11.30;99.90
37086;DHT22;23001;45.952;12.676;2023-03-23T00:58:55;11.30;99.90
37086;DHT22;23001;45.952;12.676;2023-03-23T01:01:21;11.30;99.90
37086;DHT22;23001;45.952;12.676;2023-03-23T01:03:47;11.30;99.90
37086;DHT22;23001;45.952;12.676;2023-03-23T01:06:12;11.20;99.90
37086;DHT22;23001;45.952;12.676;2023-03-23T01:08:41;11.20;99.90
37086;DHT22;23001;45.952;12.676;2023-03-23T01:11:14;11.20;99.90
37086;DHT22;23001;45.952;12.676;2023-03-23T01:13:42;11.20;99.90
37086;DHT22;23001;45.952;12.676;2023-03-23T01:16:13;11.20;99.90
37086;DHT22;23001;45.952;12.676;2023-03-23T01:18:39;11.20;99.90
37086;DHT22;23001;45.952;12.676;2023-03-23T01:21:05;11.10;99.90
37086;DHT22;23001;45.952;12.676;2023-03-23T01:23:32;11.00;99.90
37086;DHT22;23001;45.952;12.676;2023-03-23T01:26:01;11.00;99.90
37086;DHT22;23001;45.952;12.676;2023-03-23T01:31:45;11.00;99.90
37086;DHT22;23001;45.952;12.676;2023-03-23T01:43:07;10.90;99.90
37086;DHT22;23001;45.952;12.676;2023-03-23T01:45:37;10.90;99.90
37086;DHT22;23001;45.952;12.676;2023-03-23T01:48:11;10.90;99.90
37086;DHT22;23001;45.952;12.676;2023-03-23T01:50:50;11.00;99.90
37086;DHT22;23001;45.952;12.676;2023-03-23T01:53:17;10.90;99.90
37086;DHT22;23001;45.952;12.676;2023-03-23T01:55:44;10.90;99.90
37086;DHT22;23001;45.952;12.676;2023-03-23T01:58:13;10.90;99.90
37086;DHT22;23001;45.952;12.676;2023-03-23T02:00:40;10.90;99.90
37086;DHT22;23001;45.952;12.676;2023-03-23T02:03:08;10.90;99.90
37086;DHT22;23001;45.952;12.676;2023-03-23T02:05:38;10.90;99.90
37086;DHT22;23001;45.952;12.676;2023-03-23T02:08:17;10.90;99.90
37086;DHT22;23001;45.952;12.676;2023-03-23T02:10:43;10.90;99.90
37086;DHT22;23001;45.952;12.676;2023-03-23T02:13:10;10.80;99.90
37086;DHT22;23001;45.952;12.676;2023-03-23T02:18:15;10.60;99.90
37086;DHT22;23001;45.952;12.676;2023-03-23T02:20:50;10.70;99.90
37086;DHT22;23001;45.952;12.676;2023-03-23T02:26:07;10.80;99.90
37086;DHT22;23001;45.952;12.676;2023-03-23T02:33:48;10.60;99.90
37086;DHT22;23001;45.952;12.676;2023-03-23T02:38:57;10.60;99.90
37086;DHT22;23001;45.952;12.676;2023-03-23T02:41:30;10.60;99.90
37086;DHT22;23001;45.952;12.676;2023-03-23T02:43:57;10.60;99.90
37086;DHT22;23001;45.952;12.676;2023-03-23T02:46:24;10.50;99.90
37086;DHT22;23001;45.952;12.676;2023-03-23T02:48:50;10.50;99.90
37086;DHT22;23001;45.952;12.676;2023-03-23T02:51:19;10.50;99.90
37086;DHT22;23001;45.952;12.676;2023-03-23T02:53:46;10.50;99.90
37086;DHT22;23001;45.952;12.676;2023-03-23T02:56:14;10.50;99.90
37086;DHT22;23001;45.952;12.676;2023-03-23T02:58:40;10.30;99.90
37086;DHT22;23001;45.952;12.676;2023-03-23T03:03:49;10.50;99.90
37086;DHT22;23001;45.952;12.676;2023-03-23T03:09:04;10.50;99.90
37086;DHT22;23001;45.952;12.676;2023-03-23T03:11:33;10.40;99.90
37086;DHT22;23001;45.952;12.676;2023-03-23T03:14:04;10.50;99.90
37086;DHT22;23001;45.952;12.676;2023-03-23T03:16:55;10.40;99.90
37086;DHT22;23001;45.952;12.676;2023-03-23T03:21:45;10.20;99.90
37086;DHT22;23001;45.952;12.676;2023-03-23T03:24:21;10.10;99.90
37086;DHT22;23001;45.952;12.676;2023-03-23T03:26:49;10.10;99.90
37086;DHT22;23001;45.952;12.676;2023-03-23T03:29:23;10.20;99.90
37086;DHT22;23001;45.952;12.676;2023-03-23T03:31:51;10.20;99.90
37086;DHT22;23001;45.952;12.676;2023-03-23T03:34:20;10.20;99.90
37086;DHT22;23001;45.952;12.676;2023-03-23T03:36:47;10.20;99.90
37086;DHT22;23001;45.952;12.676;2023-03-23T03:39:14;10.20;99.90
37086;DHT22;23001;45.952;12.676;2023-03-23T03:41:41;10.20;99.90
37086;DHT22;23001;45.952;12.676;2023-03-23T03:44:10;10.20;99.90
37086;DHT22;23001;45.952;12.676;2023-03-23T03:46:36;10.10;99.90
37086;DHT22;23001;45.952;12.676;2023-03-23T03:49:03;10.10;99.90
37086;DHT22;23001;45.952;12.676;2023-03-23T03:52:14;10.00;99.90
37086;DHT22;23001;45.952;12.676;2023-03-23T03:54:21;10.00;99.90
37086;DHT22;23001;45.952;12.676;2023-03-23T03:56:47;10.00;99.90
37086;DHT22;23001;45.952;12.676;2023-03-23T03:59:22;9.90;99.90
37086;DHT22;23001;45.952;12.676;2023-03-23T04:01:51;10.00;99.90
37086;DHT22;23001;45.952;12.676;2023-03-23T04:04:19;9.90;99.90
37086;DHT22;23001;45.952;12.676;2023-03-23T04:06:46;9.90;99.90
37086;DHT22;23001;45.952;12.676;2023-03-23T04:09:14;9.80;99.90
37086;DHT22;23001;45.952;12.676;2023-03-23T04:11:40;9.80;99.90
37086;DHT22;23001;45.952;12.676;2023-03-23T04:14:06;10.00;99.90
37086;DHT22;23001;45.952;12.676;2023-03-23T04:16:32;10.10;99.90
37086;DHT22;23001;45.952;12.676;2023-03-23T04:19:00;10.00;99.90
37086;DHT22;23001;45.952;12.676;2023-03-23T04:21:25;9.90;99.90
37086;DHT22;23001;45.952;12.676;2023-03-23T04:23:54;10.00;99.90
37086;DHT22;23001;45.952;12.676;2023-03-23T04:26:21;9.90;99.90
37086;DHT22;23001;45.952;12.676;2023-03-23T04:28:47;9.90;99.90
37086;DHT22;23001;45.952;12.676;2023-03-23T04:31:15;9.90;99.90
37086;DHT22;23001;45.952;12.676;2023-03-23T04:33:44;9.90;99.90
37086;DHT22;23001;45.952;12.676;2023-03-23T04:36:11;9.80;99.90
37086;DHT22;23001;45.952;12.676;2023-03-23T04:38:41;9.80;99.90
37086;DHT22;23001;45.952;12.676;2023-03-23T04:41:08;9.80;99.90
37086;DHT22;23001;45.952;12.676;2023-03-23T04:43:34;9.80;99.90
37086;DHT22;23001;45.952;12.676;2023-03-23T04:46:06;9.70;99.90
37086;DHT22;23001;45.952;12.676;2023-03-23T04:48:34;9.70;99.90
37086;DHT22;23001;45.952;12.676;2023-03-23T04:51:01;9.80;99.90
37086;DHT22;23001;45.952;12.676;2023-03-23T04:53:28;9.80;99.90
37086;DHT22;23001;45.952;12.676;2023-03-23T04:55:55;9.70;99.90
37086;DHT22;23001;45.952;12.676;2023-03-23T04:58:20;9.70;99.90
37086;DHT22;23001;45.952;12.676;2023-03-23T05:00:48;9.70;99.90
37086;DHT22;23001;45.952;12.676;2023-03-23T05:03:18;9.70;99.90
37086;DHT22;23001;45.952;12.676;2023-03-23T05:05:46;9.60;99.90
37086;DHT22;23001;45.952;12.676;2023-03-23T05:08:21;9.70;99.90
37086;DHT22;23001;45.952;12.676;2023-03-23T05:10:58;9.70;99.90
37086;DHT22;23001;45.952;12.676;2023-03-23T05:13:25;9.70;99.90
37086;DHT22;23001;45.952;12.676;2023-03-23T05:15:50;9.70;99.90
37086;DHT22;23001;45.952;12.676;2023-03-23T05:18:16;9.70;99.90
37086;DHT22;23001;45.952;12.676;2023-03-23T05:20:42;9.70;99.90
37086;DHT22;23001;45.952;12.676;2023-03-23T05:23:09;9.90;99.90
37086;DHT22;23001;45.952;12.676;2023-03-23T05:25:38;9.90;99.90
37086;DHT22;23001;45.952;12.676;2023-03-23T05:28:14;9.80;99.90
37086;DHT22;23001;45.952;12.676;2023-03-23T05:30:39;9.70;99.90
37086;DHT22;23001;45.952;12.676;2023-03-23T05:33:05;9.70;99.90
37086;DHT22;23001;45.952;12.676;2023-03-23T05:35:31;9.80;99.90
37086;DHT22;23001;45.952;12.676;2023-03-23T05:37:57;9.90;99.90
37086;DHT22;23001;45.952;12.676;2023-03-23T05:40:23;9.90;99.90
37086;DHT22;23001;45.952;12.676;2023-03-23T05:42:51;10.00;99.90
37086;DHT22;23001;45.952;12.676;2023-03-23T05:45:21;10.00;99.90
37086;DHT22;23001;45.952;12.676;2023-03-23T05:47:48;10.00;99.90
37086;DHT22;23001;45.952;12.676;2023-03-23T05:50:14;10.10;99.90
37086;DHT22;23001;45.952;12.676;2023-03-23T05:52:40;10.10;99.90
37086;DHT22;23001;45.952;12.676;2023-03-23T05:55:06;10.10;99.90
37086;DHT22;23001;45.952;12.676;2023-03-23T05:57:33;10.30;99.90
37086;DHT22;23001;45.952;12.676;2023-03-23T05:59:59;10.30;99.90
37086;DHT22;23001;45.952;12.676;2023-03-23T06:02:25;10.20;99.90
37086;DHT22;23001;45.952;12.676;2023-03-23T06:05:02;10.20;99.90
37086;DHT22;23001;45.952;12.676;2023-03-23T06:07:28;10.30;99.90
37086;DHT22;23001;45.952;12.676;2023-03-23T06:09:57;10.30;99.90
37086;DHT22;23001;45.952;12.676;2023-03-23T06:12:23;10.30;99.90
37086;DHT22;23001;45.952;12.676;2023-03-23T06:14:59;10.40;99.90
37086;DHT22;23001;45.952;12.676;2023-03-23T06:17:25;10.50;99.90
37086;DHT22;23001;45.952;12.676;2023-03-23T06:19:54;10.50;99.90
37086;DHT22;23001;45.952;12.676;2023-03-23T06:22:32;10.60;99.90
37086;DHT22;23001;45.952;12.676;2023-03-23T06:24:58;10.70;99.90
37086;DHT22;23001;45.952;12.676;2023-03-23T06:27:44;10.80;99.90
37086;DHT22;23001;45.952;12.676;2023-03-23T06:30:11;10.70;99.90
37086;DHT22;23001;45.952;12.676;2023-03-23T06:32:40;10.80;99.90
37086;DHT22;23001;45.952;12.676;2023-03-23T06:35:07;10.80;99.90
37086;DHT22;23001;45.952;12.676;2023-03-23T06:37:42;10.80;99.90
37086;DHT22;23001;45.952;12.676;2023-03-23T06:40:28;10.80;99.90
37086;DHT22;23001;45.952;12.676;2023-03-23T06:43:03;10.80;99.90
37086;DHT22;23001;45.952;12.676;2023-03-23T06:45:31;11.00;99.90
37086;DHT22;23001;45.952;12.676;2023-03-23T06:48:00;11.10;99.90
37086;DHT22;23001;45.952;12.676;2023-03-23T06:50:41;11.40;99.90
37086;DHT22;23001;45.952;12.676;2023-03-23T06:53:10;11.60;99.90
37086;DHT22;23001;45.952;12.676;2023-03-23T06:55:44;11.70;99.90
37086;DHT22;23001;45.952;12.676;2023-03-23T06:58:10;11.90;99.90
37086;DHT22;23001;45.952;12.676;2023-03-23T07:00:36;12.10;99.90
37086;DHT22;23001;45.952;12.676;2023-03-23T07:03:08;12.40;99.90
37086;DHT22;23001;45.952;12.676;2023-03-23T07:05:34;12.60;99.90
37086;DHT22;23001;45.952;12.676;2023-03-23T07:08:15;12.50;99.90
37086;DHT22;23001;45.952;12.676;2023-03-23T07:10:44;12.50;99.90
37086;DHT22;23001;45.952;12.676;2023-03-23T07:13:12;12.50;99.90
37086;DHT22;23001;45.952;12.676;2023-03-23T07:15:40;12.70;99.90
37086;DHT22;23001;45.952;12.676;2023-03-23T07:18:25;12.80;99.90
37086;DHT22;23001;45.952;12.676;2023-03-23T07:20:56;12.60;99.90
37086;DHT22;23001;45.952;12.676;2023-03-23T07:23:22;12.60;99.90
37086;DHT22;23001;45.952;12.676;2023-03-23T07:25:50;12.60;99.90
37086;DHT22;23001;45.952;12.676;2023-03-23T07:28:36;12.60;99.90
37086;DHT22;23001;45.952;12.676;2023-03-23T07:31:02;12.70;99.90
37086;DHT22;23001;45.952;12.676;2023-03-23T07:34:04;12.60;99.90
37086;DHT22;23001;45.952;12.676;2023-03-23T07:40:28;12.80;99.90
37086;DHT22;23001;45.952;12.676;2023-03-23T07:43:03;12.80;99.90
37086;DHT22;23001;45.952;12.676;2023-03-23T07:52:02;13.30;99.90
37086;DHT22;23001;45.952;12.676;2023-03-23T07:57:53;13.90;99.90
37086;DHT22;23001;45.952;12.676;2023-03-23T08:00:47;14.10;99.90
37086;DHT22;23001;45.952;12.676;2023-03-23T08:06:26;14.50;99.90
37086;DHT22;23001;45.952;12.676;2023-03-23T08:08:52;14.70;99.90
37086;DHT22;23001;45.952;12.676;2023-03-23T08:11:18;14.70;99.90
37086;DHT22;23001;45.952;12.676;2023-03-23T08:13:45;14.40;99.90
37086;DHT22;23001;45.952;12.676;2023-03-23T08:16:16;14.40;99.90
37086;DHT22;23001;45.952;12.676;2023-03-23T08:18:52;14.50;99.90
37086;DHT22;23001;45.952;12.676;2023-03-23T08:21:18;14.40;99.90
37086;DHT22;23001;45.952;12.676;2023-03-23T08:23:44;14.20;99.90
37086;DHT22;23001;45.952;12.676;2023-03-23T08:26:10;14.50;99.90
37086;DHT22;23001;45.952;12.676;2023-03-23T08:28:37;14.70;99.90
37086;DHT22;23001;45.952;12.676;2023-03-23T08:31:07;15.10;99.90
37086;DHT22;23001;45.952;12.676;2023-03-23T08:33:33;15.30;99.90
37086;DHT22;23001;45.952;12.676;2023-03-23T08:35:59;15.20;99.90
37086;DHT22;23001;45.952;12.676;2023-03-23T08:38:25;15.30;99.90
37086;DHT22;23001;45.952;12.676;2023-03-23T08:41:02;15.30;99.90
37086;DHT22;23001;45.952;12.676;2023-03-23T08:43:32;15.30;99.90
37086;DHT22;23001;45.952;12.676;2023-03-23T08:45:58;15.40;99.90
37086;DHT22;23001;45.952;12.676;2023-03-23T08:48:23;15.70;99.90
37086;DHT22;23001;45.952;12.676;2023-03-23T08:50:49;15.40;99.90
37086;DHT22;23001;45.952;12.676;2023-03-23T08:53:15;15.30;99.90
37086;DHT22;23001;45.952;12.676;2023-03-23T08:55:41;15.60;99.90
37086;DHT22;23001;45.952;12.676;2023-03-23T08:58:08;16.10;99.90
37086;DHT22;23001;45.952;12.676;2023-03-23T09:00:34;16.00;99.90
37086;DHT22;23001;45.952;12.676;2023-03-23T09:03:02;15.80;99.90
37086;DHT22;23001;45.952;12.676;2023-03-23T09:05:28;16.00;99.90
37086;DHT22;23001;45.952;12.676;2023-03-23T09:07:55;16.00;99.90
37086;DHT22;23001;45.952;12.676;2023-03-23T09:10:27;16.20;99.90
37086;DHT22;23001;45.952;12.676;2023-03-23T09:12:58;16.20;99.90
37086;DHT22;23001;45.952;12.676;2023-03-23T09:15:24;16.10;99.90
37086;DHT22;23001;45.952;12.676;2023-03-23T09:17:50;16.00;99.90
37086;DHT22;23001;45.952;12.676;2023-03-23T09:23:02;16.00;99.90
37086;DHT22;23001;45.952;12.676;2023-03-23T09:25:41;16.00;99.90
37086;DHT22;23001;45.952;12.676;2023-03-23T09:28:27;16.10;99.90
37086;DHT22;23001;45.952;12.676;2023-03-23T09:31:05;16.40;99.90
37086;DHT22;23001;45.952;12.676;2023-03-23T09:36:58;17.20;99.90
37086;DHT22;23001;45.952;12.676;2023-03-23T09:39:29;17.50;99.90
37086;DHT22;23001;45.952;12.676;2023-03-23T09:47:30;17.30;99.90
37086;DHT22;23001;45.952;12.676;2023-03-23T09:50:01;17.30;99.90
37086;DHT22;23001;45.952;12.676;2023-03-23T09:52:34;17.30;99.90
37086;DHT22;23001;45.952;12.676;2023-03-23T09:55:03;17.30;99.90
37086;DHT22;23001;45.952;12.676;2023-03-23T09:57:44;17.20;99.90
37086;DHT22;23001;45.952;12.676;2023-03-23T10:00:21;17.10;99.90
37086;DHT22;23001;45.952;12.676;2023-03-23T10:03:34;17.00;99.90
37086;DHT22;23001;45.952;12.676;2023-03-23T10:05:38;17.10;99.90
37086;DHT22;23001;45.952;12.676;2023-03-23T10:08:15;16.90;99.90
37086;DHT22;23001;45.952;12.676;2023-03-23T10:15:55;17.00;99.90
37086;DHT22;23001;45.952;12.676;2023-03-23T10:19:07;17.20;99.90
37086;DHT22;23001;45.952;12.676;2023-03-23T10:21:22;17.20;99.90
37086;DHT22;23001;45.952;12.676;2023-03-23T10:23:51;17.30;99.90
37086;DHT22;23001;45.952;12.676;2023-03-23T10:26:25;17.30;99.90
37086;DHT22;23001;45.952;12.676;2023-03-23T10:29:39;17.30;99.90
37086;DHT22;23001;45.952;12.676;2023-03-23T10:35:37;17.40;99.90
37086;DHT22;23001;45.952;12.676;2023-03-23T10:38:11;17.30;99.90
37086;DHT22;23001;45.952;12.676;2023-03-23T10:41:39;17.50;99.90
37086;DHT22;23001;45.952;12.676;2023-03-23T10:55:07;17.70;99.90
37086;DHT22;23001;45.952;12.676;2023-03-23T10:57:35;17.40;99.90
37086;DHT22;23001;45.952;12.676;2023-03-23T11:00:06;17.40;99.90
37086;DHT22;23001;45.952;12.676;2023-03-23T11:02:41;17.30;99.90
37086;DHT22;23001;45.952;12.676;2023-03-23T11:05:15;17.50;99.90
37086;DHT22;23001;45.952;12.676;2023-03-23T11:07:48;17.70;99.90
37086;DHT22;23001;45.952;12.676;2023-03-23T11:10:36;17.90;99.50
37086;DHT22;23001;45.952;12.676;2023-03-23T11:13:15;18.00;99.30
37086;DHT22;23001;45.952;12.676;2023-03-23T11:15:41;18.00;99.30
37086;DHT22;23001;45.952;12.676;2023-03-23T11:18:20;18.10;99.30
37086;DHT22;23001;45.952;12.676;2023-03-23T11:20:49;18.00;98.50
37086;DHT22;23001;45.952;12.676;2023-03-23T11:23:23;18.10;98.60
37086;DHT22;23001;45.952;12.676;2023-03-23T11:25:57;18.20;98.80
37086;DHT22;23001;45.952;12.676;2023-03-23T11:28:30;18.30;99.50
37086;DHT22;23001;45.952;12.676;2023-03-23T11:30:57;18.40;98.90
37086;DHT22;23001;45.952;12.676;2023-03-23T11:36:51;18.40;98.90
37086;DHT22;23001;45.952;12.676;2023-03-23T11:39:23;18.50;97.80
37086;DHT22;23001;45.952;12.676;2023-03-23T11:41:49;18.60;97.50
37086;DHT22;23001;45.952;12.676;2023-03-23T11:44:14;18.70;97.50
37086;DHT22;23001;45.952;12.676;2023-03-23T11:49:17;18.60;97.80
37086;DHT22;23001;45.952;12.676;2023-03-23T11:51:48;18.70;98.00
37086;DHT22;23001;45.952;12.676;2023-03-23T11:54:36;18.80;97.40
37086;DHT22;23001;45.952;12.676;2023-03-23T11:57:06;18.80;97.70
37086;DHT22;23001;45.952;12.676;2023-03-23T11:59:33;18.60;97.20
37086;DHT22;23001;45.952;12.676;2023-03-23T12:08:06;18.40;98.00
37086;DHT22;23001;45.952;12.676;2023-03-23T12:26:49;18.60;96.70
37086;DHT22;23001;45.952;12.676;2023-03-23T12:29:20;18.70;97.60
37086;DHT22;23001;45.952;12.676;2023-03-23T12:34:45;18.70;97.50
37086;DHT22;23001;45.952;12.676;2023-03-23T12:50:15;18.50;98.30
37086;DHT22;23001;45.952;12.676;2023-03-23T12:55:27;18.50;98.00
37086;DHT22;23001;45.952;12.676;2023-03-23T12:57:56;18.40;98.00
37086;DHT22;23001;45.952;12.676;2023-03-23T13:00:46;18.30;97.80
37086;DHT22;23001;45.952;12.676;2023-03-23T13:03:16;18.30;98.20
37086;DHT22;23001;45.952;12.676;2023-03-23T13:05:58;18.30;98.50
37086;DHT22;23001;45.952;12.676;2023-03-23T13:08:28;18.40;98.70
37086;DHT22;23001;45.952;12.676;2023-03-23T13:10:57;18.50;98.10
37086;DHT22;23001;45.952;12.676;2023-03-23T13:13:39;18.70;98.50
37086;DHT22;23001;45.952;12.676;2023-03-23T13:18:59;18.70;98.20
37086;DHT22;23001;45.952;12.676;2023-03-23T13:21:38;18.50;98.10
37086;DHT22;23001;45.952;12.676;2023-03-23T13:24:15;18.70;98.00
37086;DHT22;23001;45.952;12.676;2023-03-23T13:26:41;18.60;98.60
37086;DHT22;23001;45.952;12.676;2023-03-23T13:29:14;18.60;98.40
37086;DHT22;23001;45.952;12.676;2023-03-23T13:31:44;18.60;98.50
37086;DHT22;23001;45.952;12.676;2023-03-23T13:34:18;18.70;98.40
37086;DHT22;23001;45.952;12.676;2023-03-23T13:39:20;18.80;98.80
37086;DHT22;23001;45.952;12.676;2023-03-23T13:41:47;18.90;98.50
37086;DHT22;23001;45.952;12.676;2023-03-23T13:44:15;18.80;98.30
37086;DHT22;23001;45.952;12.676;2023-03-23T13:46:42;18.80;98.20
37086;DHT22;23001;45.952;12.676;2023-03-23T13:51:35;19.00;98.90
37086;DHT22;23001;45.952;12.676;2023-03-23T13:59:13;18.90;98.40
37086;DHT22;23001;45.952;12.676;2023-03-23T14:01:40;19.00;98.70
37086;DHT22;23001;45.952;12.676;2023-03-23T14:04:09;19.00;98.20
37086;DHT22;23001;45.952;12.676;2023-03-23T14:06:35;19.10;99.10
37086;DHT22;23001;45.952;12.676;2023-03-23T14:09:06;19.10;98.60
37086;DHT22;23001;45.952;12.676;2023-03-23T14:11:44;19.00;98.00
37086;DHT22;23001;45.952;12.676;2023-03-23T14:14:56;19.00;98.90
37086;DHT22;23001;45.952;12.676;2023-03-23T14:17:18;19.00;98.20
37086;DHT22;23001;45.952;12.676;2023-03-23T14:19:46;19.10;98.30
37086;DHT22;23001;45.952;12.676;2023-03-23T14:22:19;19.00;98.80
37086;DHT22;23001;45.952;12.676;2023-03-23T14:24:46;19.10;98.50
37086;DHT22;23001;45.952;12.676;2023-03-23T14:27:14;19.20;98.60
37086;DHT22;23001;45.952;12.676;2023-03-23T14:29:40;19.20;98.10
37086;DHT22;23001;45.952;12.676;2023-03-23T14:32:07;19.20;97.90
37086;DHT22;23001;45.952;12.676;2023-03-23T14:34:33;19.10;97.90
37086;DHT22;23001;45.952;12.676;2023-03-23T14:36:59;19.10;97.60
37086;DHT22;23001;45.952;12.676;2023-03-23T14:39:29;19.20;98.70
37086;DHT22;23001;45.952;12.676;2023-03-23T14:41:56;19.10;98.40
37086;DHT22;23001;45.952;12.676;2023-03-23T14:44:28;19.10;98.20
37086;DHT22;23001;45.952;12.676;2023-03-23T14:46:55;19.20;98.10
37086;DHT22;23001;45.952;12.676;2023-03-23T14:49:24;19.20;98.30
37086;DHT22;23001;45.952;12.676;2023-03-23T14:51:52;19.30;98.30
37086;DHT22;23001;45.952;12.676;2023-03-23T14:54:26;19.20;98.50
37086;DHT22;23001;45.952;12.676;2023-03-23T14:56:52;19.20;99.50
37086;DHT22;23001;45.952;12.676;2023-03-23T14:59:17;19.10;98.50
37086;DHT22;23001;45.952;12.676;2023-03-23T15:01:43;19.00;98.50
37086;DHT22;23001;45.952;12.676;2023-03-23T15:04:18;19.00;99.10
37086;DHT22;23001;45.952;12.676;2023-03-23T15:07:05;19.00;98.80
37086;DHT22;23001;45.952;12.676;2023-03-23T15:09:30;18.90;99.10
37086;DHT22;23001;45.952;12.676;2023-03-23T15:11:57;18.90;99.50
37086;DHT22;23001;45.952;12.676;2023-03-23T15:14:26;18.90;99.70
37086;DHT22;23001;45.952;12.676;2023-03-23T15:16:53;18.90;99.20
37086;DHT22;23001;45.952;12.676;2023-03-23T15:19:23;18.90;99.10
37086;DHT22;23001;45.952;12.676;2023-03-23T15:21:51;18.90;99.30
37086;DHT22;23001;45.952;12.676;2023-03-23T15:24:23;18.90;99.10
37086;DHT22;23001;45.952;12.676;2023-03-23T15:26:49;19.00;99.10
37086;DHT22;23001;45.952;12.676;2023-03-23T15:29:17;19.00;99.30
37086;DHT22;23001;45.952;12.676;2023-03-23T15:31:44;19.00;99.20
37086;DHT22;23001;45.952;12.676;2023-03-23T15:34:12;18.90;99.60
37086;DHT22;23001;45.952;12.676;2023-03-23T15:36:39;18.90;99.70
37086;DHT22;23001;45.952;12.676;2023-03-23T15:39:10;18.80;99.60
37086;DHT22;23001;45.952;12.676;2023-03-23T15:41:44;18.90;99.60
37086;DHT22;23001;45.952;12.676;2023-03-23T15:44:11;18.90;99.00
37086;DHT22;23001;45.952;12.676;2023-03-23T15:46:47;18.80;98.80
37086;DHT22;23001;45.952;12.676;2023-03-23T15:49:13;18.70;98.30
37086;DHT22;23001;45.952;12.676;2023-03-23T15:51:41;18.70;98.30
37086;DHT22;23001;45.952;12.676;2023-03-23T15:54:14;18.60;98.80
37086;DHT22;23001;45.952;12.676;2023-03-23T15:56:40;18.60;98.40
37086;DHT22;23001;45.952;12.676;2023-03-23T15:59:07;18.60;98.00
37086;DHT22;23001;45.952;12.676;2023-03-23T16:01:33;18.60;98.20
37086;DHT22;23001;45.952;12.676;2023-03-23T16:06:24;18.50;98.20
37086;DHT22;23001;45.952;12.676;2023-03-23T16:08:53;18.40;98.30
37086;DHT22;23001;45.952;12.676;2023-03-23T16:11:19;18.40;98.00
37086;DHT22;23001;45.952;12.676;2023-03-23T16:13:45;18.30;98.60
37086;DHT22;23001;45.952;12.676;2023-03-23T16:16:18;18.30;98.00
37086;DHT22;23001;45.952;12.676;2023-03-23T16:18:45;18.20;98.20
37086;DHT22;23001;45.952;12.676;2023-03-23T16:21:10;18.20;98.10
37086;DHT22;23001;45.952;12.676;2023-03-23T16:23:36;18.10;98.20
37086;DHT22;23001;45.952;12.676;2023-03-23T16:26:02;18.10;98.30
37086;DHT22;23001;45.952;12.676;2023-03-23T16:28:27;18.00;98.40
37086;DHT22;23001;45.952;12.676;2023-03-23T16:30:53;17.90;98.40
37086;DHT22;23001;45.952;12.676;2023-03-23T16:33:19;17.80;98.60
37086;DHT22;23001;45.952;12.676;2023-03-23T16:35:44;17.80;98.80
37086;DHT22;23001;45.952;12.676;2023-03-23T16:38:13;17.70;98.90
37086;DHT22;23001;45.952;12.676;2023-03-23T16:40:41;17.70;98.60
37086;DHT22;23001;45.952;12.676;2023-03-23T16:43:06;17.60;99.10
37086;DHT22;23001;45.952;12.676;2023-03-23T16:45:32;17.50;98.90
37086;DHT22;23001;45.952;12.676;2023-03-23T16:47:58;17.50;98.80
37086;DHT22;23001;45.952;12.676;2023-03-23T16:50:26;17.40;98.90
37086;DHT22;23001;45.952;12.676;2023-03-23T16:52:52;17.40;99.30
37086;DHT22;23001;45.952;12.676;2023-03-23T16:55:18;17.40;99.30
37086;DHT22;23001;45.952;12.676;2023-03-23T16:57:43;17.30;99.40
37086;DHT22;23001;45.952;12.676;2023-03-23T17:00:10;17.30;98.90
37086;DHT22;23001;45.952;12.676;2023-03-23T17:02:39;17.30;98.90
37086;DHT22;23001;45.952;12.676;2023-03-23T17:05:05;17.20;98.90
37086;DHT22;23001;45.952;12.676;2023-03-23T17:07:30;17.10;99.10
37086;DHT22;23001;45.952;12.676;2023-03-23T17:09:56;17.00;98.80
37086;DHT22;23001;45.952;12.676;2023-03-23T17:12:21;16.90;98.90
37086;DHT22;23001;45.952;12.676;2023-03-23T17:14:47;16.90;98.80
37086;DHT22;23001;45.952;12.676;2023-03-23T17:17:13;16.80;99.00
37086;DHT22;23001;45.952;12.676;2023-03-23T17:19:38;16.80;99.20
37086;DHT22;23001;45.952;12.676;2023-03-23T17:22:04;16.70;99.10
37086;DHT22;23001;45.952;12.676;2023-03-23T17:24:30;16.60;99.50
37086;DHT22;23001;45.952;12.676;2023-03-23T17:26:56;16.60;99.70
37086;DHT22;23001;45.952;12.676;2023-03-23T17:29:21;16.60;99.60
37086;DHT22;23001;45.952;12.676;2023-03-23T17:31:47;16.50;99.60
37086;DHT22;23001;45.952;12.676;2023-03-23T17:34:13;16.50;99.60
37086;DHT22;23001;45.952;12.676;2023-03-23T17:36:39;16.40;99.90
37086;DHT22;23001;45.952;12.676;2023-03-23T17:39:04;16.40;99.80
37086;DHT22;23001;45.952;12.676;2023-03-23T17:41:30;16.30;99.90
37086;DHT22;23001;45.952;12.676;2023-03-23T17:43:56;16.30;99.90
37086;DHT22;23001;45.952;12.676;2023-03-23T17:46:24;16.20;99.90
37086;DHT22;23001;45.952;12.676;2023-03-23T17:48:50;16.20;99.90
37086;DHT22;23001;45.952;12.676;2023-03-23T17:51:16;16.10;99.90
37086;DHT22;23001;45.952;12.676;2023-03-23T17:53:41;16.00;99.90
37086;DHT22;23001;45.952;12.676;2023-03-23T17:56:07;16.00;99.90
37086;DHT22;23001;45.952;12.676;2023-03-23T17:58:33;16.00;99.90